createdAt,value
2024-05-09T00:01:30.073Z,50.17
2024-05-09T00:06:34.841Z,48.30
2024-05-09T00:11:42.390Z,46.87
2024-05-09T00:16:48.347Z,48.47
2024-05-09T00:21:53.159Z,49.13
2024-05-09T00:27:01.280Z,49.87
2024-05-09T00:32:06.256Z,54.60
2024-05-09T00:37:11.049Z,52.73
2024-05-09T00:42:18.407Z,48.17
2024-05-09T00:47:24.103Z,48.17
2024-05-09T00:52:29.435Z,49.07
2024-05-09T00:57:36.934Z,48.93
2024-05-09T01:02:41.892Z,50.67
2024-05-09T01:07:46.785Z,48.83
2024-05-09T01:12:54.100Z,51.97
2024-05-09T01:17:59.566Z,53.67
2024-05-09T01:23:11.153Z,55.63
2024-05-09T01:28:16.578Z,51.10
2024-05-09T01:33:21.532Z,51.80
2024-05-09T01:38:29.057Z,49.37
2024-05-09T01:43:33.845Z,48.70
2024-05-09T01:48:38.675Z,49.20
2024-05-09T01:53:46.373Z,50.40
2024-05-09T01:58:51.164Z,56.13
2024-05-09T02:03:56.051Z,53.63
2024-05-09T02:09:03.468Z,56.50
2024-05-09T02:14:08.236Z,53.17
2024-05-09T02:19:13.167Z,50.43
2024-05-09T02:24:20.723Z,48.10
2024-05-09T02:29:25.678Z,52.70
2024-05-09T02:34:30.570Z,48.40
2024-05-09T02:39:37.936Z,47.80
2024-05-09T02:44:42.593Z,50.53
2024-05-09T02:49:47.487Z,50.73
2024-05-09T02:54:54.948Z,50.93
2024-05-09T02:59:59.630Z,48.17
2024-05-09T03:05:04.496Z,49.57
2024-05-09T03:10:18.531Z,47.70
2024-05-09T03:15:29.701Z,46.70
2024-05-09T03:20:36.191Z,51.93
2024-05-09T03:25:44.335Z,44.50
2024-05-09T03:30:49.061Z,51.07
2024-05-09T03:35:53.880Z,49.23
2024-05-09T03:41:01.340Z,44.53
2024-05-09T03:46:06.120Z,49.03
2024-05-09T03:51:11.106Z,46.87
2024-05-09T03:56:18.651Z,44.70
2024-05-09T04:01:25.121Z,45.83
2024-05-09T04:06:29.987Z,45.70
2024-05-09T04:11:37.333Z,43.67
2024-05-09T04:16:44.164Z,41.80
2024-05-09T04:21:48.976Z,41.47
2024-05-09T04:26:56.274Z,41.73
2024-05-09T04:32:01.073Z,47.13
2024-05-09T04:37:07.021Z,43.70
2024-05-09T04:42:14.438Z,41.63
2024-05-09T04:47:19.305Z,48.00
2024-05-09T04:52:24.062Z,41.47
2024-05-09T04:57:31.415Z,42.20
2024-05-09T05:02:37.233Z,47.07
2024-05-09T05:07:42.063Z,45.80
2024-05-09T05:13:07.320Z,42.57
2024-05-09T05:18:12.126Z,43.63
2024-05-09T05:23:18.333Z,44.33
2024-05-09T05:28:25.955Z,47.33
2024-05-09T05:33:30.979Z,45.90
2024-05-09T05:38:36.297Z,53.10
2024-05-09T05:43:43.935Z,48.13
2024-05-09T05:48:48.904Z,46.10
2024-05-09T05:53:55.128Z,44.10
2024-05-09T05:59:02.544Z,43.47
2024-05-09T06:04:07.326Z,53.70
2024-05-09T06:09:12.723Z,52.60
2024-05-09T06:14:20.171Z,45.43
2024-05-09T06:19:24.981Z,45.77
2024-05-09T06:24:29.716Z,41.23
2024-05-09T06:29:39.602Z,49.03
2024-05-09T06:34:44.401Z,43.83
2024-05-09T06:39:49.216Z,40.60
2024-05-09T06:44:56.512Z,37.53
2024-05-09T06:50:01.262Z,38.07
2024-05-09T06:55:06.014Z,39.43
2024-05-09T07:00:22.718Z,41.17
2024-05-09T07:05:34.946Z,38.97
2024-05-09T07:10:39.815Z,37.23
2024-05-09T07:15:47.132Z,36.67
2024-05-09T07:20:51.814Z,44.50
2024-05-09T07:25:57.776Z,37.90
2024-05-09T07:31:05.109Z,42.93
2024-05-09T07:36:10.275Z,40.40
2024-05-09T07:41:15.030Z,42.53
2024-05-09T07:47:14.681Z,38.03
2024-05-09T07:53:17.309Z,35.97
2024-05-09T07:57:13.578Z,37.30
2024-05-09T08:02:21.586Z,40.53
2024-05-09T08:07:26.563Z,34.60
2024-05-09T08:12:31.255Z,32.30
2024-05-09T08:17:38.648Z,36.90
2024-05-09T08:22:43.382Z,34.83
2024-05-09T08:27:48.183Z,43.83
2024-05-09T08:32:55.694Z,36.37
2024-05-09T08:38:00.624Z,36.90
2024-05-09T08:43:08.596Z,30.37
2024-05-09T08:48:17.020Z,31.53
2024-05-09T08:53:21.957Z,28.37
2024-05-09T08:58:27.342Z,27.00
2024-05-09T09:03:36.717Z,29.10
2024-05-09T09:08:42.630Z,28.90
2024-05-09T09:13:47.329Z,28.83
2024-05-09T09:18:59.123Z,31.60
2024-05-09T09:24:03.915Z,28.83
2024-05-09T09:29:08.580Z,28.07
2024-05-09T09:34:16.214Z,36.43
2024-05-09T09:39:22.833Z,30.27
2024-05-09T09:44:28.614Z,28.80
2024-05-09T09:49:36.785Z,32.53
2024-05-09T09:54:42.332Z,33.93
2024-05-09T09:59:49.436Z,36.73
2024-05-09T10:04:57.013Z,36.80
2024-05-09T10:10:02.045Z,34.50
2024-05-09T10:15:10.744Z,29.80
2024-05-09T10:20:22.039Z,37.23
2024-05-09T10:25:39.651Z,30.03
2024-05-09T10:30:46.585Z,31.27
2024-05-09T10:35:56.947Z,27.83
2024-05-09T10:41:03.716Z,30.43
2024-05-09T10:46:08.796Z,30.60
2024-05-09T10:51:16.604Z,30.47
2024-05-09T10:56:21.541Z,29.47
2024-05-09T11:01:26.941Z,27.17
2024-05-09T11:06:38.016Z,29.10
2024-05-09T11:11:43.040Z,27.70
2024-05-09T11:16:47.744Z,26.93
2024-05-09T11:21:56.497Z,33.87
2024-05-09T11:27:01.932Z,29.83
2024-05-09T11:32:08.006Z,25.47
2024-05-09T11:37:15.456Z,24.43
2024-05-09T11:42:20.747Z,23.30
2024-05-09T11:47:25.564Z,26.20
2024-05-09T11:52:32.974Z,27.43
2024-05-09T11:57:38.970Z,36.90
2024-05-09T12:02:44.074Z,25.50
2024-05-09T12:07:51.465Z,24.70
2024-05-09T12:12:56.642Z,26.97
2024-05-09T12:18:03.469Z,26.27
2024-05-09T12:23:11.618Z,30.17
2024-05-09T12:28:18.431Z,24.13
2024-05-09T12:33:23.391Z,25.47
2024-05-09T12:38:30.721Z,25.33
2024-05-09T12:43:35.474Z,29.00
2024-05-09T12:48:40.504Z,22.27
2024-05-09T12:53:47.971Z,26.80
2024-05-09T12:58:54.218Z,22.60
2024-05-09T13:03:59.206Z,36.43
2024-05-09T13:09:07.017Z,23.40
2024-05-09T13:14:11.770Z,22.03
2024-05-09T13:19:16.628Z,26.93
2024-05-09T13:24:24.128Z,23.07
2024-05-09T13:29:28.951Z,21.30
2024-05-09T13:34:33.683Z,25.73
2024-05-09T13:39:41.118Z,25.53
2024-05-09T13:44:45.843Z,22.30
2024-05-09T13:49:51.146Z,24.43
2024-05-09T13:54:59.312Z,25.90
2024-05-09T14:00:07.009Z,21.37
2024-05-09T14:05:12.472Z,29.60
2024-05-09T14:10:26.044Z,21.10
2024-05-09T14:15:35.373Z,23.70
2024-05-09T14:20:40.382Z,23.03
2024-05-09T14:25:51.311Z,21.67
2024-05-09T14:30:58.045Z,21.20
2024-05-09T14:36:02.848Z,24.70
2024-05-09T14:41:13.175Z,23.40
2024-05-09T14:46:18.233Z,24.93
2024-05-09T14:51:23.051Z,31.10
2024-05-09T14:56:30.396Z,25.17
2024-05-09T15:01:35.185Z,21.27
2024-05-09T15:06:42.573Z,22.60
2024-05-09T15:11:49.965Z,24.80
2024-05-09T15:16:57.230Z,22.93
2024-05-09T15:22:02.003Z,25.83
2024-05-09T15:27:09.520Z,25.30
2024-05-09T15:32:14.681Z,24.50
2024-05-09T15:37:19.547Z,26.33
2024-05-09T15:42:27.249Z,23.20
2024-05-09T15:47:32.057Z,26.50
2024-05-09T15:52:36.822Z,26.57
2024-05-09T15:57:46.003Z,24.60
2024-05-09T16:02:53.245Z,25.97
2024-05-09T16:07:58.090Z,23.87
2024-05-09T16:13:05.545Z,22.20
2024-05-09T16:18:10.754Z,27.10
2024-05-09T16:23:15.557Z,28.83
2024-05-09T16:28:26.291Z,26.60
2024-05-09T16:33:31.677Z,22.57
2024-05-09T16:38:36.564Z,24.70
2024-05-09T16:43:44.030Z,29.30
2024-05-09T16:48:48.912Z,29.07
2024-05-09T16:53:53.702Z,26.00
2024-05-09T16:59:01.057Z,24.63
2024-05-09T17:04:05.978Z,30.00
2024-05-09T17:09:12.062Z,28.63
2024-05-09T17:14:22.812Z,24.80
2024-05-09T17:19:27.735Z,24.87
2024-05-09T17:24:32.604Z,24.73
2024-05-09T17:29:40.128Z,30.10
2024-05-09T17:34:44.919Z,23.90
2024-05-09T17:39:49.735Z,30.03
2024-05-09T17:44:57.243Z,25.00
2024-05-09T17:50:02.212Z,23.87
2024-05-09T17:55:07.709Z,34.97
2024-05-09T18:00:24.619Z,28.33
2024-05-09T18:05:38.845Z,27.30
2024-05-09T18:10:44.544Z,30.20
2024-05-09T18:15:52.060Z,28.43
2024-05-09T18:20:56.767Z,23.80
2024-05-09T18:26:02.117Z,28.50
2024-05-09T18:31:09.663Z,26.07
2024-05-09T18:36:14.425Z,27.43
2024-05-09T18:41:20.495Z,28.93
2024-05-09T18:46:28.295Z,24.53
2024-05-09T18:51:33.109Z,24.57
2024-05-09T18:56:39.956Z,23.33
2024-05-09T19:01:47.538Z,29.27
2024-05-09T19:06:52.474Z,28.43
2024-05-09T19:11:57.432Z,24.20
2024-05-09T19:17:04.951Z,22.23
2024-05-09T19:22:09.883Z,27.80
2024-05-09T19:27:14.651Z,25.40
2024-05-09T19:32:22.009Z,26.13
2024-05-09T19:37:31.695Z,27.83
2024-05-09T19:42:36.449Z,28.30
2024-05-09T19:47:43.993Z,26.30
2024-05-09T19:52:48.722Z,27.57
2024-05-09T19:57:53.452Z,24.90
2024-05-09T20:03:00.932Z,25.70
2024-05-09T20:08:05.743Z,25.60
2024-05-09T20:13:10.639Z,27.50
2024-05-09T20:18:20.131Z,28.80
2024-05-09T20:23:24.903Z,28.57
2024-05-09T20:28:29.697Z,30.23
2024-05-09T20:33:37.905Z,32.97
2024-05-09T20:38:42.689Z,30.50
2024-05-09T20:43:47.463Z,34.27
2024-05-09T20:48:56.347Z,30.27
2024-05-09T20:54:01.298Z,36.40
2024-05-09T20:59:06.029Z,30.20
2024-05-09T21:04:13.586Z,27.40
2024-05-09T21:09:18.533Z,30.80
2024-05-09T21:14:23.267Z,30.07
2024-05-09T21:19:30.595Z,29.83
2024-05-09T21:24:35.527Z,28.33
2024-05-09T21:29:40.362Z,30.20
2024-05-09T21:34:47.860Z,29.57
2024-05-09T21:39:52.683Z,30.27
2024-05-09T21:44:57.357Z,31.07
2024-05-09T21:50:06.126Z,29.93
2024-05-09T21:55:12.578Z,34.47
2024-05-09T22:00:28.480Z,29.97
2024-05-09T22:05:44.429Z,32.10
2024-05-09T22:10:51.064Z,32.90
2024-05-09T22:15:55.826Z,34.20
2024-05-09T22:21:03.240Z,31.63
2024-05-09T22:26:09.050Z,31.90
2024-05-09T22:31:13.853Z,34.03
2024-05-09T22:36:21.209Z,32.27
2024-05-09T22:41:26.117Z,34.40
2024-05-09T22:46:31.219Z,40.50
2024-05-09T22:51:38.614Z,35.07
2024-05-09T22:56:46.384Z,36.10
2024-05-09T23:01:51.131Z,38.13
2024-05-09T23:06:58.559Z,38.90
2024-05-09T23:12:03.392Z,38.80
2024-05-09T23:17:08.162Z,33.90
2024-05-09T23:22:15.682Z,34.80
2024-05-09T23:27:20.359Z,32.73
2024-05-09T23:32:25.170Z,44.23
2024-05-09T23:37:32.554Z,35.07
2024-05-09T23:42:37.252Z,35.53
2024-05-09T23:47:42.288Z,42.43
2024-05-09T23:52:49.653Z,37.10
2024-05-09T23:57:54.322Z,32.50
